Time;durP1;ratioP1;P1;durP2;ratioP2;P2;SDS_P1;SDS_P2;PMS_P1;PMS_P2;Temp;Humidity;BMP_temperature;BMP_pressure;BME280_temperature;BME280_humidity;BME280_pressure;Samples;Min_cycle;Max_cycle;Signal;HPM_P1;HPM_P2
2021/11/17 06:52:15;;;;;;;49.67;29.25;;;;;;;;;;4912015;29;20100;-81
2021/11/17 06:54:41;;;;;;;50.47;30.67;;;;;;;;;;4911713;29;20038;-81
2021/11/17 06:57:07;;;;;;;50.30;32.20;;;;;;;;;;4924436;29;20167;-79
2021/11/17 06:59:33;;;;;;;48.55;30.58;;;;;;;;;;4921297;29;20028;-79
2021/11/17 07:02:05;;;;;;;56.45;32.13;;;;;;;;;;4918933;29;20024;-79
2021/11/17 07:04:31;;;;;;;55.85;33.15;;;;;;;;;;4923029;29;20087;-78
2021/11/17 07:06:57;;;;;;;54.35;32.72;;;;;;;;;;4921351;29;20390;-80
2021/11/17 07:09:23;;;;;;;51.67;32.30;;;;;;;;;;4918150;29;20119;-81
2021/11/17 07:11:49;;;;;;;51.97;30.13;;;;;;;;;;4914049;29;20039;-81
2021/11/17 07:14:16;;;;;;;54.70;32.35;;;;;;;;;;4907734;29;20051;-80
2021/11/17 07:16:42;;;;;;;52.53;30.52;;;;;;;;;;4907953;29;20024;-79
2021/11/17 07:19:09;;;;;;;56.42;31.63;;;;;;;;;;4903130;29;20509;-79
2021/11/17 07:21:36;;;;;;;52.20;30.17;;;;;;;;;;4908287;29;20036;-81
2021/11/17 07:24:02;;;;;;;56.58;33.85;;;;;;;;;;4930254;29;20047;-80
2021/11/17 07:26:29;;;;;;;54.28;32.90;;;;;;;;;;4910569;29;20028;-80
2021/11/17 07:28:55;;;;;;;50.30;30.63;;;;;;;;;;4928407;29;20032;-81
2021/11/17 07:31:21;;;;;;;53.75;33.60;;;;;;;;;;4922520;29;20028;-81
2021/11/17 07:33:47;;;;;;;53.33;31.95;;;;;;;;;;4939836;29;20034;-81
2021/11/17 07:36:13;;;;;;;57.50;31.70;;;;;;;;;;4941483;29;20047;-80
2021/11/17 07:38:39;;;;;;;55.92;31.05;;;;;;;;;;4931882;29;20072;-80
2021/11/17 07:41:08;;;;;;;51.42;29.20;;;;;;;;;;4922434;29;20092;-81
2021/11/17 07:43:34;;;;;;;55.35;31.25;;;;;;;;;;4936634;29;20501;-80
2021/11/17 07:46:00;;;;;;;51.75;31.08;;;;;;;;;;4940118;29;20174;-80
2021/11/17 07:48:27;;;;;;;53.47;30.67;;;;;;;;;;4941007;29;20032;-82
2021/11/17 07:50:54;;;;;;;52.53;31.55;;;;;;;;;;4932905;29;20044;-80
2021/11/17 07:53:21;;;;;;;50.40;30.25;;;;;;;;;;4920795;29;20052;-81
2021/11/17 07:55:49;;;;;;;52.95;31.10;;;;;;;;;;4921054;29;20115;-81
2021/11/17 07:58:15;;;;;;;55.00;35.22;;;;;;;;;;4922908;29;20083;-80
2021/11/17 08:00:45;;;;;;;52.30;31.75;;;;;;;;;;4928539;29;20059;-81
2021/11/17 08:03:11;;;;;;;54.05;33.33;;;;;;;;;;4933582;29;20024;-80
2021/11/17 08:05:38;;;;;;;56.65;32.53;;;;;;;;;;4922235;29;20123;-80
2021/11/17 08:08:05;;;;;;;53.70;32.55;;;;;;;;;;4922576;29;20028;-81
2021/11/17 08:10:33;;;;;;;63.65;31.70;;;;;;;;;;4922199;29;20069;-80
2021/11/17 08:12:59;;;;;;;56.83;31.10;;;;;;;;;;4921885;29;20031;-81
2021/11/17 08:15:25;;;;;;;52.22;31.70;;;;;;;;;;4922307;29;20055;-81
2021/11/17 08:17:51;;;;;;;51.05;31.52;;;;;;;;;;4920943;29;20385;-79
2021/11/17 08:20:18;;;;;;;51.22;30.35;;;;;;;;;;4922508;29;20024;-81
2021/11/17 08:22:54;;;;;;;51.45;31.25;;;;;;;;;;4941354;29;20374;-80
2021/11/17 08:25:21;;;;;;;50.95;29.83;;;;;;;;;;4941137;29;20024;-79
2021/11/17 08:27:48;;;;;;;46.05;30.10;;;;;;;;;;4934887;29;20106;-80
2021/11/17 08:30:15;;;;;;;52.78;30.88;;;;;;;;;;4922667;29;20046;-80
2021/11/17 08:32:42;;;;;;;48.42;29.88;;;;;;;;;;4931877;29;20031;-80
2021/11/17 08:35:09;;;;;;;55.72;31.77;;;;;;;;;;4941166;29;20066;-81
2021/11/17 08:37:35;;;;;;;55.03;31.10;;;;;;;;;;4937900;29;20047;-80
2021/11/17 08:40:05;;;;;;;52.90;31.52;;;;;;;;;;4921126;29;20486;-79
2021/11/17 08:42:32;;;;;;;50.72;29.83;;;;;;;;;;4923739;29;20456;-80
2021/11/17 08:44:57;;;;;;;48.03;29.40;;;;;;;;;;4924528;29;20098;-81
2021/11/17 08:47:24;;;;;;;49.92;30.38;;;;;;;;;;4923412;29;20051;-80
2021/11/17 08:49:54;;;;;;;51.65;30.63;;;;;;;;;;4924892;29;20063;-80
2021/11/17 08:52:20;;;;;;;50.05;30.25;;;;;;;;;;4925151;29;20038;-81
2021/11/17 08:54:46;;;;;;;45.83;28.48;;;;;;;;;;4924870;29;20032;-80
2021/11/17 08:57:15;;;;;;;49.95;29.38;;;;;;;;;;4924806;29;20032;-80
2021/11/17 08:59:41;;;;;;;50.03;28.52;;;;;;;;;;4925111;29;20052;-81
2021/11/17 09:02:07;;;;;;;49.03;28.25;;;;;;;;;;4931935;29;20082;-80
2021/11/17 09:04:33;;;;;;;51.65;28.05;;;;;;;;;;4944218;29;20063;-81
2021/11/17 09:06:59;;;;;;;43.92;26.90;;;;;;;;;;4944219;29;20024;-81
2021/11/17 09:09:25;;;;;;;45.90;27.15;;;;;;;;;;4924323;29;20031;-81
2021/11/17 09:11:52;;;;;;;52.00;29.48;;;;;;;;;;4925694;29;20028;-80
2021/11/17 09:14:18;;;;;;;49.40;28.30;;;;;;;;;;4924914;29;20028;-81
2021/11/17 09:16:45;;;;;;;48.35;29.70;;;;;;;;;;4925211;29;20028;-80
2021/11/17 09:19:11;;;;;;;48.50;27.75;;;;;;;;;;4925976;29;20055;-81
2021/11/17 09:21:39;;;;;;;46.75;27.58;;;;;;;;;;4936936;29;20035;-80
2021/11/17 09:24:06;;;;;;;47.35;26.52;;;;;;;;;;4944254;29;20176;-79
2021/11/17 09:26:33;;;;;;;51.33;28.50;;;;;;;;;;4943854;29;20028;-83
2021/11/17 09:28:59;;;;;;;45.90;28.15;;;;;;;;;;4939321;29;20059;-80
2021/11/17 09:31:26;;;;;;;42.33;26.52;;;;;;;;;;4913895;29;20036;-80
2021/11/17 09:33:52;;;;;;;46.50;25.90;;;;;;;;;;4904936;29;20479;-78
2021/11/17 09:36:19;;;;;;;14.07;7.90;;;;;;;;;;4905915;29;20032;-83
2021/11/17 09:38:49;;;;;;;12.45;6.05;;;;;;;;;;4912487;29;20055;-80
2021/11/17 09:41:16;;;;;;;10.38;5.13;;;;;;;;;;4935370;29;20549;-80
2021/11/17 09:43:50;;;;;;;10.73;5.20;;;;;;;;;;4925190;29;20413;-83
2021/11/17 09:46:19;;;;;;;9.68;5.03;;;;;;;;;;4924707;29;20054;-81
2021/11/17 09:48:47;;;;;;;9.90;5.22;;;;;;;;;;4924487;29;20076;-82
2021/11/17 09:51:15;;;;;;;10.32;5.22;;;;;;;;;;4941339;29;20134;-82
2021/11/17 09:53:44;;;;;;;9.35;5.07;;;;;;;;;;4941404;29;20082;-82
2021/11/17 09:56:13;;;;;;;9.93;4.95;;;;;;;;;;4919697;29;20020;-82
2021/11/17 09:58:46;;;;;;;8.93;4.63;;;;;;;;;;4926257;29;20044;-83
2021/11/17 10:01:22;;;;;;;8.77;4.88;;;;;;;;;;4940144;29;20091;-82
2021/11/17 10:03:55;;;;;;;9.82;4.70;;;;;;;;;;4941446;29;20395;-81
2021/11/17 10:14:31;;;;;;;8.35;4.03;;;;;;;;;;4941246;29;20043;-83
2021/11/17 10:16:57;;;;;;;10.50;5.47;;;;;;;;;;4941072;29;20039;-81
2021/11/17 10:19:25;;;;;;;9.40;4.47;;;;;;;;;;4927125;29;20047;-83
2021/11/17 10:22:12;;;;;;;8.65;4.80;;;;;;;;;;4920597;29;20035;-81
2021/11/17 10:24:47;;;;;;;8.00;4.78;;;;;;;;;;4922696;29;20036;-80
2021/11/17 10:27:15;;;;;;;9.60;4.53;;;;;;;;;;4922660;29;20486;-81
2021/11/17 10:29:43;;;;;;;8.15;3.95;;;;;;;;;;4922553;29;20530;-80
2021/11/17 10:32:15;;;;;;;9.55;4.18;;;;;;;;;;4917115;29;20469;-81
2021/11/17 10:34:54;;;;;;;11.57;5.03;;;;;;;;;;4910377;29;20019;-80
2021/11/17 10:37:25;;;;;;;8.35;4.10;;;;;;;;;;4941001;29;20051;-80
2021/11/17 10:39:52;;;;;;;7.65;4.18;;;;;;;;;;4941578;29;20031;-83
2021/11/17 10:42:21;;;;;;;9.73;4.30;;;;;;;;;;4940020;29;20035;-83
2021/11/17 10:44:52;;;;;;;7.68;3.40;;;;;;;;;;4939227;29;20050;-80
2021/11/17 10:47:21;;;;;;;6.93;3.13;;;;;;;;;;4904272;29;20062;-83
2021/11/17 10:49:51;;;;;;;7.72;3.50;;;;;;;;;;4914818;29;20044;-81
2021/11/17 10:52:23;;;;;;;7.68;3.72;;;;;;;;;;4913762;29;20044;-82
2021/11/17 10:54:50;;;;;;;6.38;3.42;;;;;;;;;;4934476;29;20017;-83
2021/11/17 10:57:24;;;;;;;7.22;3.20;;;;;;;;;;4914172;29;20024;-82
2021/11/17 10:59:51;;;;;;;7.10;3.30;;;;;;;;;;4944030;29;20119;-82
2021/11/17 11:02:17;;;;;;;6.93;3.50;;;;;;;;;;4941644;29;20019;-82
2021/11/17 11:05:04;;;;;;;6.97;3.38;;;;;;;;;;4924521;29;20111;-83
2021/11/17 11:07:36;;;;;;;7.90;3.70;;;;;;;;;;4904656;29;20036;-82
2021/11/17 11:10:08;;;;;;;6.85;3.13;;;;;;;;;;4902638;29;20025;-83
2021/11/17 11:12:39;;;;;;;6.43;3.30;;;;;;;;;;4920349;29;20035;-82
2021/11/17 11:15:05;;;;;;;8.23;3.67;;;;;;;;;;4912018;29;20064;-83
2021/11/17 11:17:40;;;;;;;8.52;4.75;;;;;;;;;;4923113;29;20079;-82
2021/11/17 11:20:20;;;;;;;6.85;3.08;;;;;;;;;;4919075;29;20029;-82
2021/11/17 11:23:05;;;;;;;6.78;3.05;;;;;;;;;;4922387;29;20028;-82
2021/11/17 11:25:40;;;;;;;6.13;2.70;;;;;;;;;;4921487;29;20039;-84
2021/11/17 11:28:26;;;;;;;7.65;2.83;;;;;;;;;;4920321;29;20036;-79
2021/11/17 11:31:03;;;;;;;6.95;2.95;;;;;;;;;;4903810;29;20024;-81
2021/11/17 11:33:36;;;;;;;4.95;2.40;;;;;;;;;;4915514;29;20455;-83
2021/11/17 11:36:11;;;;;;;8.20;3.10;;;;;;;;;;4919685;29;20032;-82
2021/11/17 11:38:43;;;;;;;7.82;4.22;;;;;;;;;;4920856;29;20036;-82
2021/11/17 11:41:12;;;;;;;7.88;3.47;;;;;;;;;;4918339;29;20028;-81
2021/11/17 11:43:39;;;;;;;6.53;3.10;;;;;;;;;;4911827;29;20043;-82
2021/11/17 11:46:19;;;;;;;7.22;3.60;;;;;;;;;;4918578;29;20032;-82
2021/11/17 11:48:57;;;;;;;8.75;4.55;;;;;;;;;;4914433;29;20483;-82
2021/11/17 11:51:23;;;;;;;7.68;3.63;;;;;;;;;;4910921;29;20055;-83
2021/11/17 11:54:07;;;;;;;8.18;3.70;;;;;;;;;;4922135;29;20024;-82
2021/11/17 11:56:43;;;;;;;8.10;3.80;;;;;;;;;;4921058;29;20056;-81
2021/11/17 11:59:21;;;;;;;6.72;3.50;;;;;;;;;;4917413;29;20075;-81
2021/11/17 12:01:47;;;;;;;8.75;4.53;;;;;;;;;;4921569;29;20048;-81
2021/11/17 12:04:16;;;;;;;7.57;3.60;;;;;;;;;;4920754;29;20032;-81
2021/11/17 12:06:52;;;;;;;7.55;3.75;;;;;;;;;;4919374;29;20066;-81
2021/11/17 12:09:19;;;;;;;7.55;3.95;;;;;;;;;;4906116;29;20025;-81
2021/11/17 12:12:03;;;;;;;7.30;3.90;;;;;;;;;;4901371;29;20032;-82
2021/11/17 12:14:33;;;;;;;6.93;3.65;;;;;;;;;;4900372;29;20032;-82
2021/11/17 12:16:59;;;;;;;7.65;4.07;;;;;;;;;;4905311;29;20096;-81
2021/11/17 12:19:31;;;;;;;7.57;3.67;;;;;;;;;;4927557;29;20036;-80
2021/11/17 12:22:06;;;;;;;7.37;3.90;;;;;;;;;;4925173;29;20028;-81
2021/11/17 12:24:34;;;;;;;7.90;3.83;;;;;;;;;;4924482;29;20288;-82
2021/11/17 12:27:12;;;;;;;6.85;3.75;;;;;;;;;;4922487;29;20052;-82
2021/11/17 12:29:41;;;;;;;9.95;4.10;;;;;;;;;;4923314;29;20091;-81
2021/11/17 12:32:10;;;;;;;6.65;3.38;;;;;;;;;;4923167;29;20490;-81
2021/11/17 12:34:40;;;;;;;6.95;3.55;;;;;;;;;;4905162;29;20130;-82
2021/11/17 12:37:10;;;;;;;7.97;4.13;;;;;;;;;;4905612;29;20039;-81
2021/11/17 12:39:48;;;;;;;7.72;4.40;;;;;;;;;;4922304;29;20119;-81
2021/11/17 12:42:15;;;;;;;8.40;4.00;;;;;;;;;;4925342;29;20028;-86
2021/11/17 12:44:43;;;;;;;8.32;3.53;;;;;;;;;;4926102;29;20123;-82
2021/11/17 12:47:14;;;;;;;7.30;3.67;;;;;;;;;;4924631;29;20095;-82
2021/11/17 12:49:47;;;;;;;7.32;4.22;;;;;;;;;;4925066;29;20056;-82
2021/11/17 12:52:19;;;;;;;7.97;4.55;;;;;;;;;;4906527;29;20064;-83
2021/11/17 12:55:04;;;;;;;8.07;4.80;;;;;;;;;;4909083;29;20027;-82
2021/11/17 12:57:45;;;;;;;8.35;5.60;;;;;;;;;;4923632;29;20106;-82
2021/11/17 13:00:14;;;;;;;11.02;5.00;;;;;;;;;;4922344;29;20410;-82
2021/11/17 13:02:47;;;;;;;7.47;4.38;;;;;;;;;;4912880;29;20503;-83
2021/11/17 13:05:22;;;;;;;8.90;5.22;;;;;;;;;;4906084;29;20057;-82
2021/11/17 13:07:49;;;;;;;9.90;6.40;;;;;;;;;;4920666;29;20394;-83
2021/11/17 13:10:34;;;;;;;12.30;7.07;;;;;;;;;;4941149;29;20023;-82
2021/11/17 13:13:09;;;;;;;13.35;6.05;;;;;;;;;;4943313;29;20024;-82
2021/11/17 13:15:44;;;;;;;9.90;5.13;;;;;;;;;;4924685;29;20024;-82
2021/11/17 13:18:23;;;;;;;10.13;5.18;;;;;;;;;;4905112;29;20064;-82
2021/11/17 13:20:49;;;;;;;10.57;4.95;;;;;;;;;;4943206;29;20110;-83
2021/11/17 13:23:16;;;;;;;7.50;4.63;;;;;;;;;;4943106;29;20028;-82
2021/11/17 13:25:51;;;;;;;9.10;5.50;;;;;;;;;;4925557;29;20107;-83
2021/11/17 13:28:36;;;;;;;12.55;6.78;;;;;;;;;;4925608;29;20032;-83
2021/11/17 13:31:20;;;;;;;13.20;7.60;;;;;;;;;;4925478;29;20034;-83
2021/11/17 13:33:57;;;;;;;13.80;7.72;;;;;;;;;;4924045;29;20088;-83
2021/11/17 13:36:35;;;;;;;14.43;7.55;;;;;;;;;;4923821;29;20020;-83
2021/11/17 13:39:01;;;;;;;15.73;8.82;;;;;;;;;;4922287;29;20025;-82
2021/11/17 13:41:27;;;;;;;14.88;8.82;;;;;;;;;;4933501;29;20032;-82
2021/11/17 13:43:53;;;;;;;13.65;9.43;;;;;;;;;;4936986;29;20058;-83
2021/11/17 13:46:20;;;;;;;14.95;9.35;;;;;;;;;;4923024;29;20036;-82
2021/11/17 13:48:48;;;;;;;15.40;8.95;;;;;;;;;;4922169;29;20047;-83
2021/11/17 13:51:15;;;;;;;15.25;8.55;;;;;;;;;;4923604;29;20458;-82
2021/11/17 13:53:42;;;;;;;13.65;8.88;;;;;;;;;;4922443;29;20055;-82
2021/11/17 13:56:13;;;;;;;19.08;10.13;;;;;;;;;;4921786;29;20091;-83
2021/11/17 13:58:39;;;;;;;15.55;9.30;;;;;;;;;;4921133;29;20099;-82
2021/11/17 14:01:06;;;;;;;16.40;9.65;;;;;;;;;;4911130;29;20111;-83
2021/11/17 14:03:32;;;;;;;18.30;10.48;;;;;;;;;;4922900;29;20039;-83
2021/11/17 14:06:03;;;;;;;14.75;8.95;;;;;;;;;;4922252;29;20398;-82
2021/11/17 14:08:29;;;;;;;15.68;9.23;;;;;;;;;;4925170;29;20020;-82
2021/11/17 14:10:59;;;;;;;15.57;8.98;;;;;;;;;;4923562;29;20038;-83
2021/11/17 14:13:25;;;;;;;14.20;9.07;;;;;;;;;;4922615;29;20076;-83
2021/11/17 14:15:51;;;;;;;14.15;8.50;;;;;;;;;;4922184;29;20039;-82
2021/11/17 14:18:17;;;;;;;14.55;8.85;;;;;;;;;;4923758;29;20036;-80
2021/11/17 14:20:45;;;;;;;15.82;8.23;;;;;;;;;;4921447;29;20025;-82
2021/11/17 14:23:12;;;;;;;14.80;9.00;;;;;;;;;;4922721;29;20028;-82
2021/11/17 14:25:38;;;;;;;14.50;9.35;;;;;;;;;;4922725;29;20545;-82
2021/11/17 14:28:07;;;;;;;13.52;8.10;;;;;;;;;;4925282;29;20499;-82
2021/11/17 14:30:36;;;;;;;14.27;8.45;;;;;;;;;;4915884;29;20029;-82
2021/11/17 14:33:04;;;;;;;16.17;9.23;;;;;;;;;;4905125;29;20037;-83
2021/11/17 14:35:30;;;;;;;15.50;8.43;;;;;;;;;;4904709;29;20046;-83
2021/11/17 14:37:57;;;;;;;15.32;7.50;;;;;;;;;;4941802;29;20171;-82
2021/11/17 14:40:24;;;;;;;12.68;7.88;;;;;;;;;;4925508;29;20028;-83
2021/11/17 14:42:50;;;;;;;16.98;9.80;;;;;;;;;;4920974;29;20056;-82
2021/11/17 14:45:18;;;;;;;14.43;8.43;;;;;;;;;;4922248;29;20112;-82
2021/11/17 14:47:44;;;;;;;17.13;9.35;;;;;;;;;;4921717;29;20037;-82
2021/11/17 14:50:11;;;;;;;13.82;8.07;;;;;;;;;;4921770;29;20048;-82
2021/11/17 14:52:38;;;;;;;11.77;7.30;;;;;;;;;;4921520;29;20107;-83
2021/11/17 14:55:05;;;;;;;12.30;8.23;;;;;;;;;;4923090;29;20035;-83
2021/11/17 14:57:31;;;;;;;13.18;8.18;;;;;;;;;;4921409;29;20035;-82
2021/11/17 14:59:58;;;;;;;13.95;8.10;;;;;;;;;;4915061;29;20031;-82
2021/11/17 15:02:29;;;;;;;13.80;8.20;;;;;;;;;;4903274;29;20513;-82
2021/11/17 15:04:55;;;;;;;11.65;7.30;;;;;;;;;;4920784;29;20052;-82
2021/11/17 15:07:21;;;;;;;12.82;8.05;;;;;;;;;;4922314;29;20021;-82
2021/11/17 15:09:47;;;;;;;13.13;7.95;;;;;;;;;;4921332;29;20032;-82
2021/11/17 15:12:16;;;;;;;13.27;7.95;;;;;;;;;;4922119;29;20119;-81
2021/11/17 15:14:43;;;;;;;13.57;7.82;;;;;;;;;;4926894;29;20394;-82
2021/11/17 15:17:09;;;;;;;12.68;8.18;;;;;;;;;;4921624;29;20035;-82
2021/11/17 15:19:35;;;;;;;14.48;8.32;;;;;;;;;;4921508;29;20051;-82
2021/11/17 15:22:02;;;;;;;12.40;7.53;;;;;;;;;;4920444;29;20022;-82
2021/11/17 15:24:29;;;;;;;13.40;7.40;;;;;;;;;;4930269;29;20098;-82
2021/11/17 15:27:01;;;;;;;15.27;10.10;;;;;;;;;;4940317;29;20044;-82
2021/11/17 15:29:27;;;;;;;16.63;9.27;;;;;;;;;;4932282;29;20155;-81
2021/11/17 15:31:56;;;;;;;20.52;14.02;;;;;;;;;;4921275;29;20107;-82
2021/11/17 15:34:22;;;;;;;17.55;11.88;;;;;;;;;;4919660;29;20032;-83
2021/11/17 15:36:48;;;;;;;23.85;14.45;;;;;;;;;;4919800;29;20024;-82
2021/11/17 15:39:14;;;;;;;13.55;8.93;;;;;;;;;;4921523;29;20028;-82
2021/11/17 15:41:41;;;;;;;14.18;9.30;;;;;;;;;;4922830;29;20617;-82
2021/11/17 15:44:08;;;;;;;14.63;9.05;;;;;;;;;;4919942;29;20287;-82
2021/11/17 15:46:37;;;;;;;13.15;8.07;;;;;;;;;;4940752;29;20028;-82
2021/11/17 15:49:03;;;;;;;19.83;11.00;;;;;;;;;;4939809;29;20023;-82
2021/11/17 15:51:41;;;;;;;27.90;13.43;;;;;;;;;;4940048;29;20074;-82
2021/11/17 15:54:07;;;;;;;21.58;12.02;;;;;;;;;;4939626;29;20042;-82
2021/11/17 15:56:34;;;;;;;15.88;9.43;;;;;;;;;;4939881;29;20024;-82
2021/11/17 15:59:00;;;;;;;23.35;15.18;;;;;;;;;;4921952;29;20439;-82
2021/11/17 16:01:27;;;;;;;15.82;10.57;;;;;;;;;;4919615;29;20025;-82
2021/11/17 16:03:54;;;;;;;15.25;9.50;;;;;;;;;;4904069;29;20024;-83
2021/11/17 16:06:22;;;;;;;14.05;8.35;;;;;;;;;;4917068;29;20498;-83
2021/11/17 16:08:49;;;;;;;14.73;8.65;;;;;;;;;;4910230;29;20032;-84
2021/11/17 16:11:15;;;;;;;14.82;9.02;;;;;;;;;;4910116;29;20384;-82
2021/11/17 16:13:41;;;;;;;16.58;9.43;;;;;;;;;;4916985;29;20024;-82
2021/11/17 16:16:08;;;;;;;16.67;9.93;;;;;;;;;;4915936;29;20119;-80
2021/11/17 16:18:34;;;;;;;16.88;9.25;;;;;;;;;;4915658;29;20028;-82
2021/11/17 16:21:03;;;;;;;17.02;9.48;;;;;;;;;;4916876;29;20032;-82
2021/11/17 16:26:31;;;;;;;14.60;9.85;;;;;;;;;;4916916;29;20055;-82
2021/11/17 16:28:57;;;;;;;18.70;10.82;;;;;;;;;;4894281;29;20040;-81
2021/11/17 16:31:25;;;;;;;17.92;9.35;;;;;;;;;;4896197;29;20049;-81
2021/11/17 16:33:51;;;;;;;15.88;8.93;;;;;;;;;;4897446;29;20044;-83
2021/11/17 16:36:17;;;;;;;21.10;9.68;;;;;;;;;;4907635;29;20038;-80
2021/11/17 16:38:45;;;;;;;15.45;9.05;;;;;;;;;;4902439;29;20080;-83
2021/11/17 16:41:14;;;;;;;19.02;10.45;;;;;;;;;;4898449;29;20052;-80
2021/11/17 16:43:40;;;;;;;18.52;10.25;;;;;;;;;;4897450;29;20039;-82
2021/11/17 16:46:06;;;;;;;22.50;14.55;;;;;;;;;;4910232;29;20051;-82
2021/11/17 16:48:32;;;;;;;21.17;13.63;;;;;;;;;;4917036;29;20035;-81
2021/11/17 16:50:59;;;;;;;18.70;12.13;;;;;;;;;;4916338;29;20202;-82
2021/11/17 16:53:25;;;;;;;18.05;9.93;;;;;;;;;;4917669;29;20403;-80
2021/11/17 16:55:51;;;;;;;15.15;10.38;;;;;;;;;;4913514;29;20031;-82
2021/11/17 16:58:19;;;;;;;16.30;9.70;;;;;;;;;;4915491;29;20515;-82
2021/11/17 17:00:47;;;;;;;16.98;9.57;;;;;;;;;;4900054;29;20394;-82
2021/11/17 17:03:16;;;;;;;16.08;9.38;;;;;;;;;;4932904;29;20714;-81
2021/11/17 17:05:43;;;;;;;14.05;9.35;;;;;;;;;;4915183;29;20030;-83
2021/11/17 17:08:10;;;;;;;16.92;9.93;;;;;;;;;;4939880;29;20028;-82
2021/11/17 17:10:36;;;;;;;14.85;9.50;;;;;;;;;;4938543;29;20028;-81
2021/11/17 17:13:03;;;;;;;17.48;10.30;;;;;;;;;;4904616;29;20096;-82
2021/11/17 17:15:30;;;;;;;15.02;10.15;;;;;;;;;;4908296;29;20076;-82
2021/11/17 17:17:58;;;;;;;14.75;10.88;;;;;;;;;;4918341;29;20036;-82
2021/11/17 17:20:29;;;;;;;15.98;10.73;;;;;;;;;;4920044;29;20030;-82
2021/11/17 17:22:55;;;;;;;16.48;11.45;;;;;;;;;;4918593;29;20032;-81
2021/11/17 17:25:22;;;;;;;17.23;10.55;;;;;;;;;;4919421;29;20091;-81
2021/11/17 17:27:48;;;;;;;15.07;11.23;;;;;;;;;;4919887;29;20363;-82
2021/11/17 17:30:17;;;;;;;14.98;9.70;;;;;;;;;;4918515;29;20028;-82
2021/11/17 17:32:43;;;;;;;14.73;10.30;;;;;;;;;;4918497;29;20036;-81
2021/11/17 17:35:10;;;;;;;16.08;10.27;;;;;;;;;;4919455;29;20046;-82
2021/11/17 17:37:36;;;;;;;15.55;10.40;;;;;;;;;;4919451;29;20035;-81
2021/11/17 17:40:03;;;;;;;16.08;9.63;;;;;;;;;;4920262;29;20044;-82
2021/11/17 17:42:29;;;;;;;16.08;11.40;;;;;;;;;;4919417;29;20055;-83
2021/11/17 17:44:55;;;;;;;15.93;10.85;;;;;;;;;;4914741;29;20084;-82
2021/11/17 17:47:22;;;;;;;17.80;11.43;;;;;;;;;;4917817;29;20036;-85
2021/11/17 17:49:48;;;;;;;24.20;15.55;;;;;;;;;;4918156;29;20405;-81
2021/11/17 17:52:16;;;;;;;20.30;13.38;;;;;;;;;;4919209;29;20028;-82
2021/11/17 17:54:44;;;;;;;16.27;10.55;;;;;;;;;;4919369;29;20442;-81
2021/11/17 17:57:10;;;;;;;16.02;10.40;;;;;;;;;;4919017;29;20036;-82
2021/11/17 17:59:38;;;;;;;18.95;12.48;;;;;;;;;;4919657;29;20031;-81
2021/11/17 18:02:05;;;;;;;16.08;10.82;;;;;;;;;;4915249;29;20024;-82
2021/11/17 18:04:31;;;;;;;15.27;10.50;;;;;;;;;;4904346;29;20047;-82
2021/11/17 18:06:57;;;;;;;17.10;10.02;;;;;;;;;;4900213;29;20025;-81
2021/11/17 18:09:24;;;;;;;15.93;11.07;;;;;;;;;;4903038;29;20029;-81
2021/11/17 18:11:50;;;;;;;15.82;10.73;;;;;;;;;;4904191;29;20021;-80
2021/11/17 18:14:16;;;;;;;17.33;11.20;;;;;;;;;;4907577;29;20037;-81
2021/11/17 18:16:43;;;;;;;17.10;10.82;;;;;;;;;;4902871;29;20419;-80
2021/11/17 18:19:09;;;;;;;13.80;10.55;;;;;;;;;;4900803;29;20031;-81
2021/11/17 18:21:35;;;;;;;16.23;10.77;;;;;;;;;;4900202;29;20033;-82
2021/11/17 18:24:01;;;;;;;16.17;11.27;;;;;;;;;;4909332;29;20024;-82
2021/11/17 18:26:31;;;;;;;16.15;10.85;;;;;;;;;;4936418;29;20032;-82
2021/11/17 18:28:57;;;;;;;14.68;9.88;;;;;;;;;;4930145;29;20402;-82
2021/11/17 18:31:23;;;;;;;16.40;10.13;;;;;;;;;;4919043;29;20031;-82
2021/11/17 18:33:51;;;;;;;14.38;9.75;;;;;;;;;;4922360;29;20028;-81
2021/11/17 18:36:18;;;;;;;14.82;10.25;;;;;;;;;;4936519;29;20061;-82
2021/11/17 18:38:44;;;;;;;18.50;13.50;;;;;;;;;;4937225;29;20031;-81
2021/11/17 18:41:14;;;;;;;14.40;10.40;;;;;;;;;;4936390;29;20035;-80
2021/11/17 18:43:40;;;;;;;15.60;10.85;;;;;;;;;;4934505;29;20569;-80
2021/11/17 18:46:06;;;;;;;17.67;12.38;;;;;;;;;;4918954;29;20074;-82
2021/11/17 18:48:33;;;;;;;21.23;13.75;;;;;;;;;;4917132;29;20021;-84
2021/11/17 18:51:00;;;;;;;20.38;15.07;;;;;;;;;;4918497;29;20048;-80
2021/11/17 18:53:28;;;;;;;16.70;12.23;;;;;;;;;;4918715;29;20098;-81
2021/11/17 18:55:54;;;;;;;18.98;10.63;;;;;;;;;;4935602;29;20031;-81
2021/11/17 18:58:22;;;;;;;15.90;11.38;;;;;;;;;;4937130;29;20481;-79
2021/11/17 19:00:54;;;;;;;15.75;11.23;;;;;;;;;;4936871;29;20031;-79
2021/11/17 19:03:20;;;;;;;15.60;10.38;;;;;;;;;;4936202;29;20504;-82
2021/11/17 19:05:46;;;;;;;18.33;12.82;;;;;;;;;;4921232;29;20028;-78
2021/11/17 19:08:12;;;;;;;19.80;14.13;;;;;;;;;;4917166;29;20475;-81
2021/11/17 19:11:05;;;;;;;18.05;12.07;;;;;;;;;;4918854;29;20024;-78
2021/11/17 19:13:31;;;;;;;15.03;10.30;;;;;;;;;;4919474;29;20032;-80
2021/11/17 19:15:57;;;;;;;15.57;11.35;;;;;;;;;;4937089;29;20263;-80
2021/11/17 19:18:23;;;;;;;17.98;12.55;;;;;;;;;;4935836;29;20082;-82
2021/11/17 19:20:49;;;;;;;16.92;11.40;;;;;;;;;;4937207;29;20095;-81
2021/11/17 19:23:15;;;;;;;16.13;12.02;;;;;;;;;;4936696;29;20035;-79
2021/11/17 19:25:41;;;;;;;16.02;11.15;;;;;;;;;;4934727;29;20036;-81
2021/11/17 19:28:08;;;;;;;14.82;10.48;;;;;;;;;;4937090;29;20067;-80
2021/11/17 19:30:36;;;;;;;14.10;8.75;;;;;;;;;;4936991;29;20024;-80
2021/11/17 19:33:02;;;;;;;12.05;8.13;;;;;;;;;;4936250;29;20095;-80
2021/11/17 19:35:33;;;;;;;12.65;8.45;;;;;;;;;;4936429;29;20043;-79
2021/11/17 19:38:01;;;;;;;15.70;9.20;;;;;;;;;;4937456;29;20036;-80
2021/11/17 19:40:27;;;;;;;13.93;7.88;;;;;;;;;;4937268;29;20031;-79
2021/11/17 19:42:53;;;;;;;12.57;8.80;;;;;;;;;;4920723;29;20032;-80
2021/11/17 19:45:19;;;;;;;11.77;7.53;;;;;;;;;;4929956;29;20033;-81
2021/11/17 19:47:46;;;;;;;11.50;7.75;;;;;;;;;;4919236;29;20020;-82
2021/11/17 19:50:12;;;;;;;15.35;12.05;;;;;;;;;;4938746;29;20059;-80
2021/11/17 19:52:38;;;;;;;15.40;11.10;;;;;;;;;;4937065;29;20020;-81
2021/11/17 19:55:06;;;;;;;15.38;9.93;;;;;;;;;;4936875;29;20091;-80
2021/11/17 19:57:33;;;;;;;12.57;8.68;;;;;;;;;;4904218;29;20040;-81
2021/11/17 19:59:59;;;;;;;14.77;9.43;;;;;;;;;;4912556;29;20032;-80
2021/11/17 20:02:27;;;;;;;14.38;10.13;;;;;;;;;;4917772;29;20064;-80
2021/11/17 20:04:55;;;;;;;11.45;7.43;;;;;;;;;;4916515;29;20055;-80
2021/11/17 20:07:22;;;;;;;11.43;7.10;;;;;;;;;;4918024;29;20017;-81
2021/11/17 20:09:48;;;;;;;11.07;6.90;;;;;;;;;;4918865;29;20024;-80
2021/11/17 20:12:17;;;;;;;11.73;7.32;;;;;;;;;;4917380;29;20028;-81
2021/11/17 20:14:43;;;;;;;11.57;7.38;;;;;;;;;;4917604;29;20578;-80
2021/11/17 20:17:10;;;;;;;10.43;7.10;;;;;;;;;;4917439;29;20369;-81
2021/11/17 20:19:36;;;;;;;10.80;6.72;;;;;;;;;;4920230;29;20091;-83
2021/11/17 20:22:04;;;;;;;10.88;7.47;;;;;;;;;;4918471;29;20507;-83
2021/11/17 20:24:30;;;;;;;10.82;6.68;;;;;;;;;;4918677;29;20024;-82
2021/11/17 20:26:56;;;;;;;10.15;6.07;;;;;;;;;;4901611;29;20024;-82
2021/11/17 20:29:23;;;;;;;10.80;5.88;;;;;;;;;;4900538;29;20053;-81
2021/11/17 20:31:50;;;;;;;10.45;6.03;;;;;;;;;;4900157;29;20077;-81
2021/11/17 20:34:16;;;;;;;10.57;6.80;;;;;;;;;;4899905;29;20432;-82
2021/11/17 20:36:44;;;;;;;8.50;5.40;;;;;;;;;;4900477;29;20036;-81
2021/11/17 20:39:11;;;;;;;10.23;6.50;;;;;;;;;;4912487;29;20032;-82
2021/11/17 20:41:39;;;;;;;10.40;5.88;;;;;;;;;;4922468;29;20038;-82
2021/11/17 20:44:05;;;;;;;9.43;5.30;;;;;;;;;;4921632;29;20048;-82
2021/11/17 20:46:31;;;;;;;9.65;5.88;;;;;;;;;;4921047;29;20078;-83
2021/11/17 20:48:57;;;;;;;11.35;5.97;;;;;;;;;;4921933;29;20493;-83
2021/11/17 20:51:25;;;;;;;8.60;5.00;;;;;;;;;;4921161;29;20166;-80
2021/11/17 20:53:52;;;;;;;7.70;4.85;;;;;;;;;;4919865;29;20024;-83
2021/11/17 20:56:19;;;;;;;8.32;4.78;;;;;;;;;;4913653;29;20035;-83
2021/11/17 20:58:45;;;;;;;7.50;4.70;;;;;;;;;;4920615;29;20040;-82
2021/11/17 21:01:11;;;;;;;8.35;4.65;;;;;;;;;;4918206;29;20060;-81
2021/11/17 21:03:38;;;;;;;7.63;4.65;;;;;;;;;;4903879;29;20035;-83
2021/11/17 21:06:05;;;;;;;8.05;4.50;;;;;;;;;;4915918;29;20040;-82
2021/11/17 21:08:33;;;;;;;8.98;5.20;;;;;;;;;;4921871;29;20509;-82
2021/11/17 21:11:00;;;;;;;8.55;4.97;;;;;;;;;;4909191;29;20116;-85
2021/11/17 21:13:26;;;;;;;8.48;4.65;;;;;;;;;;4934761;29;20024;-82
2021/11/17 21:15:53;;;;;;;8.20;5.18;;;;;;;;;;4909100;29;20044;-82
2021/11/17 21:18:21;;;;;;;8.43;4.82;;;;;;;;;;4920152;29;20083;-81
2021/11/17 21:20:49;;;;;;;7.97;4.28;;;;;;;;;;4925530;29;20030;-82
2021/11/17 21:23:16;;;;;;;8.02;4.47;;;;;;;;;;4942326;29;20036;-81
2021/11/17 21:25:43;;;;;;;10.27;5.60;;;;;;;;;;4934473;29;20060;-82
2021/11/17 21:28:09;;;;;;;7.60;4.43;;;;;;;;;;4938572;29;20418;-82
2021/11/17 21:30:35;;;;;;;8.18;5.18;;;;;;;;;;4922945;29;20059;-81
2021/11/17 21:33:01;;;;;;;8.35;4.90;;;;;;;;;;4922556;29;20020;-82
2021/11/17 21:35:29;;;;;;;11.55;6.90;;;;;;;;;;4923228;29;20056;-82
2021/11/17 21:37:56;;;;;;;8.40;5.28;;;;;;;;;;4923522;29;20614;-81